sensor_id;sensor_type;location;lat;lon;timestamp;temperature;humidity
23629;DHT22;11991;57.150;-2.134;2023-09-19T00:00:39;10.20;99.90
23629;DHT22;11991;57.150;-2.134;2023-09-19T00:03:09;10.10;99.90
23629;DHT22;11991;57.150;-2.134;2023-09-19T00:05:38;10.10;99.90
23629;DHT22;11991;57.150;-2.134;2023-09-19T00:08:05;10.10;99.90
23629;DHT22;11991;57.150;-2.134;2023-09-19T00:10:33;10.20;99.90
23629;DHT22;11991;57.150;-2.134;2023-09-19T00:13:04;10.20;99.90
23629;DHT22;11991;57.150;-2.134;2023-09-19T00:15:38;10.20;99.90
23629;DHT22;11991;57.150;-2.134;2023-09-19T00:18:06;10.30;99.90
23629;DHT22;11991;57.150;-2.134;2023-09-19T00:20:37;10.30;99.90
23629;DHT22;11991;57.150;-2.134;2023-09-19T00:23:05;10.30;99.90
23629;DHT22;11991;57.150;-2.134;2023-09-19T00:25:32;10.30;99.90
23629;DHT22;11991;57.150;-2.134;2023-09-19T00:28:02;10.40;99.90
23629;DHT22;11991;57.150;-2.134;2023-09-19T00:30:30;10.40;99.90
23629;DHT22;11991;57.150;-2.134;2023-09-19T00:32:57;10.40;99.90
23629;DHT22;11991;57.150;-2.134;2023-09-19T00:35:25;10.40;99.90
23629;DHT22;11991;57.150;-2.134;2023-09-19T00:37:53;10.40;99.90
23629;DHT22;11991;57.150;-2.134;2023-09-19T00:40:20;10.40;99.90
23629;DHT22;11991;57.150;-2.134;2023-09-19T00:42:49;10.40;99.90
23629;DHT22;11991;57.150;-2.134;2023-09-19T00:45:17;10.30;99.90
23629;DHT22;11991;57.150;-2.134;2023-09-19T00:47:48;10.30;99.90
23629;DHT22;11991;57.150;-2.134;2023-09-19T00:50:21;10.30;99.90
23629;DHT22;11991;57.150;-2.134;2023-09-19T00:52:50;10.20;99.90
23629;DHT22;11991;57.150;-2.134;2023-09-19T00:55:20;10.10;99.90
23629;DHT22;11991;57.150;-2.134;2023-09-19T00:57:48;10.10;99.90
23629;DHT22;11991;57.150;-2.134;2023-09-19T01:00:17;10.10;99.90
23629;DHT22;11991;57.150;-2.134;2023-09-19T01:02:47;10.00;99.90
23629;DHT22;11991;57.150;-2.134;2023-09-19T01:05:15;9.90;99.90
23629;DHT22;11991;57.150;-2.134;2023-09-19T01:07:43;9.80;99.90
23629;DHT22;11991;57.150;-2.134;2023-09-19T01:10:17;9.90;99.90
23629;DHT22;11991;57.150;-2.134;2023-09-19T01:16:07;9.90;99.90
23629;DHT22;11991;57.150;-2.134;2023-09-19T01:29:49;9.80;99.90
23629;DHT22;11991;57.150;-2.134;2023-09-19T01:32:19;9.80;99.90
23629;DHT22;11991;57.150;-2.134;2023-09-19T01:34:54;9.70;99.90
23629;DHT22;11991;57.150;-2.134;2023-09-19T01:37:23;9.80;99.90
23629;DHT22;11991;57.150;-2.134;2023-09-19T01:39:59;9.70;99.90
23629;DHT22;11991;57.150;-2.134;2023-09-19T01:42:37;9.80;99.90
23629;DHT22;11991;57.150;-2.134;2023-09-19T01:47:57;9.80;99.90
23629;DHT22;11991;57.150;-2.134;2023-09-19T01:50:41;9.70;99.90
23629;DHT22;11991;57.150;-2.134;2023-09-19T01:53:30;9.70;99.90
23629;DHT22;11991;57.150;-2.134;2023-09-19T01:56:01;9.70;99.90
23629;DHT22;11991;57.150;-2.134;2023-09-19T01:58:44;9.70;99.90
23629;DHT22;11991;57.150;-2.134;2023-09-19T02:01:17;9.70;99.90
23629;DHT22;11991;57.150;-2.134;2023-09-19T02:03:47;9.80;99.90
23629;DHT22;11991;57.150;-2.134;2023-09-19T02:06:16;9.80;99.90
23629;DHT22;11991;57.150;-2.134;2023-09-19T02:08:45;9.80;99.90
23629;DHT22;11991;57.150;-2.134;2023-09-19T02:11:12;9.80;99.90
23629;DHT22;11991;57.150;-2.134;2023-09-19T02:13:40;9.80;99.90
23629;DHT22;11991;57.150;-2.134;2023-09-19T02:16:09;9.80;99.90
23629;DHT22;11991;57.150;-2.134;2023-09-19T02:18:39;9.80;99.90
23629;DHT22;11991;57.150;-2.134;2023-09-19T02:21:06;9.80;99.90
23629;DHT22;11991;57.150;-2.134;2023-09-19T02:23:33;9.80;99.90
23629;DHT22;11991;57.150;-2.134;2023-09-19T02:26:00;9.80;99.90
23629;DHT22;11991;57.150;-2.134;2023-09-19T02:28:27;9.70;99.90
23629;DHT22;11991;57.150;-2.134;2023-09-19T02:30:59;9.70;99.90
23629;DHT22;11991;57.150;-2.134;2023-09-19T02:33:26;9.70;99.90
23629;DHT22;11991;57.150;-2.134;2023-09-19T02:35:57;9.70;99.90
23629;DHT22;11991;57.150;-2.134;2023-09-19T02:38:31;9.70;99.90
23629;DHT22;11991;57.150;-2.134;2023-09-19T02:40:58;9.60;99.90
23629;DHT22;11991;57.150;-2.134;2023-09-19T02:43:25;9.60;99.90
23629;DHT22;11991;57.150;-2.134;2023-09-19T02:45:53;9.60;99.90
23629;DHT22;11991;57.150;-2.134;2023-09-19T02:48:20;9.60;99.90
23629;DHT22;11991;57.150;-2.134;2023-09-19T02:50:51;9.50;99.90
23629;DHT22;11991;57.150;-2.134;2023-09-19T02:53:19;9.50;99.90
23629;DHT22;11991;57.150;-2.134;2023-09-19T02:55:49;9.50;99.90
23629;DHT22;11991;57.150;-2.134;2023-09-19T02:58:20;9.40;99.90
23629;DHT22;11991;57.150;-2.134;2023-09-19T03:00:47;9.40;99.90
23629;DHT22;11991;57.150;-2.134;2023-09-19T03:03:15;9.40;99.90
23629;DHT22;11991;57.150;-2.134;2023-09-19T03:05:43;9.40;99.90
23629;DHT22;11991;57.150;-2.134;2023-09-19T03:08:17;9.30;99.90
23629;DHT22;11991;57.150;-2.134;2023-09-19T03:10:47;9.30;99.90
23629;DHT22;11991;57.150;-2.134;2023-09-19T03:13:17;9.20;99.90
23629;DHT22;11991;57.150;-2.134;2023-09-19T03:15:45;9.30;99.90
23629;DHT22;11991;57.150;-2.134;2023-09-19T03:18:17;9.20;99.90
23629;DHT22;11991;57.150;-2.134;2023-09-19T03:20:53;9.20;99.90
23629;DHT22;11991;57.150;-2.134;2023-09-19T03:23:23;9.20;99.90
23629;DHT22;11991;57.150;-2.134;2023-09-19T03:25:50;9.20;99.90
23629;DHT22;11991;57.150;-2.134;2023-09-19T03:28:19;9.20;99.90
23629;DHT22;11991;57.150;-2.134;2023-09-19T03:31:03;9.20;99.90
23629;DHT22;11991;57.150;-2.134;2023-09-19T03:33:33;9.10;99.90
23629;DHT22;11991;57.150;-2.134;2023-09-19T03:36:02;9.10;99.90
23629;DHT22;11991;57.150;-2.134;2023-09-19T03:38:33;9.10;99.90
23629;DHT22;11991;57.150;-2.134;2023-09-19T03:41:02;9.00;99.90
23629;DHT22;11991;57.150;-2.134;2023-09-19T03:43:29;9.00;99.90
23629;DHT22;11991;57.150;-2.134;2023-09-19T03:45:57;9.00;99.90
23629;DHT22;11991;57.150;-2.134;2023-09-19T03:48:28;8.90;99.90
23629;DHT22;11991;57.150;-2.134;2023-09-19T03:50:56;8.90;99.90
23629;DHT22;11991;57.150;-2.134;2023-09-19T03:53:24;8.90;99.90
23629;DHT22;11991;57.150;-2.134;2023-09-19T03:55:52;8.90;99.90
23629;DHT22;11991;57.150;-2.134;2023-09-19T03:58:19;8.90;99.90
23629;DHT22;11991;57.150;-2.134;2023-09-19T04:00:47;8.90;99.90
23629;DHT22;11991;57.150;-2.134;2023-09-19T04:03:16;8.90;99.90
23629;DHT22;11991;57.150;-2.134;2023-09-19T04:05:48;8.90;99.90
23629;DHT22;11991;57.150;-2.134;2023-09-19T04:08:15;8.90;99.90
23629;DHT22;11991;57.150;-2.134;2023-09-19T04:10:43;8.90;99.90
23629;DHT22;11991;57.150;-2.134;2023-09-19T04:13:11;8.90;99.90
23629;DHT22;11991;57.150;-2.134;2023-09-19T04:15:38;8.90;99.90
23629;DHT22;11991;57.150;-2.134;2023-09-19T04:18:07;8.90;99.90
23629;DHT22;11991;57.150;-2.134;2023-09-19T04:20:34;8.90;99.90
23629;DHT22;11991;57.150;-2.134;2023-09-19T04:23:01;8.90;99.90
23629;DHT22;11991;57.150;-2.134;2023-09-19T04:25:29;8.90;99.90
23629;DHT22;11991;57.150;-2.134;2023-09-19T04:27:56;8.90;99.90
23629;DHT22;11991;57.150;-2.134;2023-09-19T04:30:25;8.90;99.90
23629;DHT22;11991;57.150;-2.134;2023-09-19T04:32:52;8.90;99.90
23629;DHT22;11991;57.150;-2.134;2023-09-19T04:35:20;8.90;99.90
23629;DHT22;11991;57.150;-2.134;2023-09-19T04:37:47;8.90;99.90
23629;DHT22;11991;57.150;-2.134;2023-09-19T04:40:15;8.90;99.90
23629;DHT22;11991;57.150;-2.134;2023-09-19T04:42:45;8.90;99.90
23629;DHT22;11991;57.150;-2.134;2023-09-19T04:45:12;8.90;99.90
23629;DHT22;11991;57.150;-2.134;2023-09-19T04:47:40;8.90;99.90
23629;DHT22;11991;57.150;-2.134;2023-09-19T04:50:10;8.90;99.90
23629;DHT22;11991;57.150;-2.134;2023-09-19T04:52:42;8.90;99.90
23629;DHT22;11991;57.150;-2.134;2023-09-19T04:55:12;8.90;99.90
23629;DHT22;11991;57.150;-2.134;2023-09-19T04:57:44;9.00;99.90
23629;DHT22;11991;57.150;-2.134;2023-09-19T05:00:13;9.00;99.90
23629;DHT22;11991;57.150;-2.134;2023-09-19T05:02:41;9.00;99.90
23629;DHT22;11991;57.150;-2.134;2023-09-19T05:05:09;9.10;99.90
23629;DHT22;11991;57.150;-2.134;2023-09-19T05:07:45;9.10;99.90
23629;DHT22;11991;57.150;-2.134;2023-09-19T05:10:13;9.10;99.90
23629;DHT22;11991;57.150;-2.134;2023-09-19T05:12:41;9.10;99.90
23629;DHT22;11991;57.150;-2.134;2023-09-19T05:15:08;9.20;99.90
23629;DHT22;11991;57.150;-2.134;2023-09-19T05:17:36;9.20;99.90
23629;DHT22;11991;57.150;-2.134;2023-09-19T05:20:03;9.20;99.90
23629;DHT22;11991;57.150;-2.134;2023-09-19T05:22:43;9.20;99.90
23629;DHT22;11991;57.150;-2.134;2023-09-19T05:25:10;9.20;99.90
23629;DHT22;11991;57.150;-2.134;2023-09-19T05:27:38;9.20;99.90
23629;DHT22;11991;57.150;-2.134;2023-09-19T05:30:05;9.30;99.90
23629;DHT22;11991;57.150;-2.134;2023-09-19T05:32:33;9.30;99.90
23629;DHT22;11991;57.150;-2.134;2023-09-19T05:35:01;9.30;99.90
23629;DHT22;11991;57.150;-2.134;2023-09-19T05:37:28;9.30;99.90
23629;DHT22;11991;57.150;-2.134;2023-09-19T05:39:56;9.30;99.90
23629;DHT22;11991;57.150;-2.134;2023-09-19T05:42:24;9.30;99.90
23629;DHT22;11991;57.150;-2.134;2023-09-19T05:44:51;9.40;99.90
23629;DHT22;11991;57.150;-2.134;2023-09-19T05:47:18;9.40;99.90
23629;DHT22;11991;57.150;-2.134;2023-09-19T05:49:45;9.40;99.90
23629;DHT22;11991;57.150;-2.134;2023-09-19T05:52:14;9.40;99.90
23629;DHT22;11991;57.150;-2.134;2023-09-19T05:54:41;9.50;99.90
23629;DHT22;11991;57.150;-2.134;2023-09-19T05:57:09;9.50;99.90
23629;DHT22;11991;57.150;-2.134;2023-09-19T05:59:39;9.50;99.90
23629;DHT22;11991;57.150;-2.134;2023-09-19T06:02:06;9.50;99.90
23629;DHT22;11991;57.150;-2.134;2023-09-19T06:04:34;9.50;99.90
23629;DHT22;11991;57.150;-2.134;2023-09-19T06:07:01;9.50;99.90
23629;DHT22;11991;57.150;-2.134;2023-09-19T06:09:29;9.50;99.90
23629;DHT22;11991;57.150;-2.134;2023-09-19T06:12:00;9.50;99.90
23629;DHT22;11991;57.150;-2.134;2023-09-19T06:14:30;9.50;99.90
23629;DHT22;11991;57.150;-2.134;2023-09-19T06:16:57;9.50;99.90
23629;DHT22;11991;57.150;-2.134;2023-09-19T06:19:24;9.60;99.90
23629;DHT22;11991;57.150;-2.134;2023-09-19T06:21:53;9.60;99.90
23629;DHT22;11991;57.150;-2.134;2023-09-19T06:24:21;9.60;99.90
23629;DHT22;11991;57.150;-2.134;2023-09-19T06:26:48;9.60;99.90
23629;DHT22;11991;57.150;-2.134;2023-09-19T06:29:16;9.60;99.90
23629;DHT22;11991;57.150;-2.134;2023-09-19T06:31:43;9.60;99.90
23629;DHT22;11991;57.150;-2.134;2023-09-19T06:34:11;9.70;99.90
23629;DHT22;11991;57.150;-2.134;2023-09-19T06:36:42;9.60;99.90
23629;DHT22;11991;57.150;-2.134;2023-09-19T06:39:10;9.60;99.90
23629;DHT22;11991;57.150;-2.134;2023-09-19T06:41:38;9.60;99.90
23629;DHT22;11991;57.150;-2.134;2023-09-19T06:44:10;9.60;99.90
23629;DHT22;11991;57.150;-2.134;2023-09-19T06:46:37;9.70;99.90
23629;DHT22;11991;57.150;-2.134;2023-09-19T06:49:06;9.70;99.90
23629;DHT22;11991;57.150;-2.134;2023-09-19T06:51:33;9.70;99.90
23629;DHT22;11991;57.150;-2.134;2023-09-19T06:54:02;9.80;99.90
23629;DHT22;11991;57.150;-2.134;2023-09-19T06:56:29;9.90;99.90
23629;DHT22;11991;57.150;-2.134;2023-09-19T06:58:56;9.90;99.90
23629;DHT22;11991;57.150;-2.134;2023-09-19T07:01:23;9.90;99.90
23629;DHT22;11991;57.150;-2.134;2023-09-19T07:03:52;10.00;99.90
23629;DHT22;11991;57.150;-2.134;2023-09-19T07:06:20;10.00;99.90
23629;DHT22;11991;57.150;-2.134;2023-09-19T07:08:47;10.10;99.90
23629;DHT22;11991;57.150;-2.134;2023-09-19T07:11:15;10.10;99.90
23629;DHT22;11991;57.150;-2.134;2023-09-19T07:13:42;10.10;99.90
23629;DHT22;11991;57.150;-2.134;2023-09-19T07:16:10;10.20;99.90
23629;DHT22;11991;57.150;-2.134;2023-09-19T07:18:54;10.10;99.90
23629;DHT22;11991;57.150;-2.134;2023-09-19T07:21:23;10.20;99.90
23629;DHT22;11991;57.150;-2.134;2023-09-19T07:23:50;10.30;99.90
23629;DHT22;11991;57.150;-2.134;2023-09-19T07:26:19;10.30;99.90
23629;DHT22;11991;57.150;-2.134;2023-09-19T07:28:46;10.30;99.90
23629;DHT22;11991;57.150;-2.134;2023-09-19T07:31:13;10.30;99.90
23629;DHT22;11991;57.150;-2.134;2023-09-19T07:33:41;10.30;99.90
23629;DHT22;11991;57.150;-2.134;2023-09-19T07:36:10;10.30;99.90
23629;DHT22;11991;57.150;-2.134;2023-09-19T07:38:38;10.30;99.90
23629;DHT22;11991;57.150;-2.134;2023-09-19T07:41:05;10.30;99.90
23629;DHT22;11991;57.150;-2.134;2023-09-19T07:43:32;10.30;99.90
23629;DHT22;11991;57.150;-2.134;2023-09-19T07:46:05;10.40;99.90
23629;DHT22;11991;57.150;-2.134;2023-09-19T07:48:34;10.40;99.90
23629;DHT22;11991;57.150;-2.134;2023-09-19T07:51:07;10.40;99.90
23629;DHT22;11991;57.150;-2.134;2023-09-19T07:53:35;10.40;99.90
23629;DHT22;11991;57.150;-2.134;2023-09-19T07:56:06;10.40;99.90
23629;DHT22;11991;57.150;-2.134;2023-09-19T07:58:34;10.40;99.90
23629;DHT22;11991;57.150;-2.134;2023-09-19T08:01:06;10.40;99.90
23629;DHT22;11991;57.150;-2.134;2023-09-19T08:03:34;10.40;99.90
23629;DHT22;11991;57.150;-2.134;2023-09-19T08:06:01;10.40;99.90
23629;DHT22;11991;57.150;-2.134;2023-09-19T08:08:30;10.40;99.90
23629;DHT22;11991;57.150;-2.134;2023-09-19T08:10:57;10.40;99.90
23629;DHT22;11991;57.150;-2.134;2023-09-19T08:13:25;10.40;99.90
23629;DHT22;11991;57.150;-2.134;2023-09-19T08:15:52;10.40;99.90
23629;DHT22;11991;57.150;-2.134;2023-09-19T08:18:20;10.40;99.90
23629;DHT22;11991;57.150;-2.134;2023-09-19T08:20:51;10.50;99.90
23629;DHT22;11991;57.150;-2.134;2023-09-19T08:23:18;10.50;99.90
23629;DHT22;11991;57.150;-2.134;2023-09-19T08:25:47;10.50;99.90
23629;DHT22;11991;57.150;-2.134;2023-09-19T08:28:14;10.50;99.90
23629;DHT22;11991;57.150;-2.134;2023-09-19T08:30:46;10.60;99.90
23629;DHT22;11991;57.150;-2.134;2023-09-19T08:33:13;10.60;99.90
23629;DHT22;11991;57.150;-2.134;2023-09-19T08:35:42;10.70;99.90
23629;DHT22;11991;57.150;-2.134;2023-09-19T08:38:10;10.70;99.90
23629;DHT22;11991;57.150;-2.134;2023-09-19T08:40:41;10.70;99.90
23629;DHT22;11991;57.150;-2.134;2023-09-19T08:43:11;10.80;99.90
23629;DHT22;11991;57.150;-2.134;2023-09-19T08:45:38;10.90;99.90
23629;DHT22;11991;57.150;-2.134;2023-09-19T08:48:25;10.90;99.90
23629;DHT22;11991;57.150;-2.134;2023-09-19T08:53:41;11.00;99.90
23629;DHT22;11991;57.150;-2.134;2023-09-19T08:56:11;11.10;99.90
23629;DHT22;11991;57.150;-2.134;2023-09-19T08:58:57;11.10;99.90
23629;DHT22;11991;57.150;-2.134;2023-09-19T09:01:29;11.20;99.90
23629;DHT22;11991;57.150;-2.134;2023-09-19T09:04:01;11.20;99.90
23629;DHT22;11991;57.150;-2.134;2023-09-19T09:06:29;11.20;99.90
23629;DHT22;11991;57.150;-2.134;2023-09-19T09:08:57;11.30;99.90
23629;DHT22;11991;57.150;-2.134;2023-09-19T09:11:25;11.30;99.90
23629;DHT22;11991;57.150;-2.134;2023-09-19T09:13:55;11.30;99.90
23629;DHT22;11991;57.150;-2.134;2023-09-19T09:16:23;11.30;99.90
23629;DHT22;11991;57.150;-2.134;2023-09-19T09:18:53;11.40;99.90
23629;DHT22;11991;57.150;-2.134;2023-09-19T09:21:23;11.50;99.90
23629;DHT22;11991;57.150;-2.134;2023-09-19T09:23:52;11.50;99.90
23629;DHT22;11991;57.150;-2.134;2023-09-19T09:29:05;11.60;99.90
23629;DHT22;11991;57.150;-2.134;2023-09-19T09:31:33;11.60;99.90
23629;DHT22;11991;57.150;-2.134;2023-09-19T09:34:00;11.60;99.90
23629;DHT22;11991;57.150;-2.134;2023-09-19T09:36:36;11.60;99.90
23629;DHT22;11991;57.150;-2.134;2023-09-19T09:39:04;11.60;99.90
23629;DHT22;11991;57.150;-2.134;2023-09-19T09:41:43;11.70;99.90
23629;DHT22;11991;57.150;-2.134;2023-09-19T09:44:18;11.70;99.90
23629;DHT22;11991;57.150;-2.134;2023-09-19T09:46:47;11.80;99.90
23629;DHT22;11991;57.150;-2.134;2023-09-19T09:49:22;11.80;99.90
23629;DHT22;11991;57.150;-2.134;2023-09-19T09:52:05;11.90;99.90
23629;DHT22;11991;57.150;-2.134;2023-09-19T09:54:37;11.90;99.90
23629;DHT22;11991;57.150;-2.134;2023-09-19T09:57:10;11.90;99.90
23629;DHT22;11991;57.150;-2.134;2023-09-19T10:02:29;12.00;99.90
23629;DHT22;11991;57.150;-2.134;2023-09-19T10:05:17;12.00;99.90
23629;DHT22;11991;57.150;-2.134;2023-09-19T10:07:50;12.00;99.90
23629;DHT22;11991;57.150;-2.134;2023-09-19T10:10:39;12.00;99.90
23629;DHT22;11991;57.150;-2.134;2023-09-19T10:13:11;12.00;99.90
23629;DHT22;11991;57.150;-2.134;2023-09-19T10:15:48;12.00;99.90
23629;DHT22;11991;57.150;-2.134;2023-09-19T10:18:26;12.00;99.90
23629;DHT22;11991;57.150;-2.134;2023-09-19T10:20:56;12.00;99.90
23629;DHT22;11991;57.150;-2.134;2023-09-19T10:23:25;12.00;99.90
23629;DHT22;11991;57.150;-2.134;2023-09-19T10:25:57;12.00;99.90
23629;DHT22;11991;57.150;-2.134;2023-09-19T10:28:28;12.10;99.90
23629;DHT22;11991;57.150;-2.134;2023-09-19T10:30:56;12.10;99.90
23629;DHT22;11991;57.150;-2.134;2023-09-19T10:33:25;12.10;99.90
23629;DHT22;11991;57.150;-2.134;2023-09-19T10:35:54;12.20;99.90
23629;DHT22;11991;57.150;-2.134;2023-09-19T10:38:24;12.20;99.90
23629;DHT22;11991;57.150;-2.134;2023-09-19T10:40:56;12.30;99.90
23629;DHT22;11991;57.150;-2.134;2023-09-19T10:43:30;12.30;99.90
23629;DHT22;11991;57.150;-2.134;2023-09-19T10:46:06;12.30;99.90
23629;DHT22;11991;57.150;-2.134;2023-09-19T10:48:34;12.40;99.90
23629;DHT22;11991;57.150;-2.134;2023-09-19T10:51:19;12.50;99.90
23629;DHT22;11991;57.150;-2.134;2023-09-19T10:53:55;12.50;99.90
23629;DHT22;11991;57.150;-2.134;2023-09-19T10:56:32;12.60;99.90
23629;DHT22;11991;57.150;-2.134;2023-09-19T10:59:09;12.70;99.90
23629;DHT22;11991;57.150;-2.134;2023-09-19T11:01:45;12.70;99.90
23629;DHT22;11991;57.150;-2.134;2023-09-19T11:04:33;12.70;99.90
23629;DHT22;11991;57.150;-2.134;2023-09-19T11:07:10;12.70;99.90
23629;DHT22;11991;57.150;-2.134;2023-09-19T11:09:48;12.80;99.90
23629;DHT22;11991;57.150;-2.134;2023-09-19T11:15:08;12.80;99.90
23629;DHT22;11991;57.150;-2.134;2023-09-19T11:17:38;12.90;99.90
23629;DHT22;11991;57.150;-2.134;2023-09-19T11:30:46;13.00;99.90
23629;DHT22;11991;57.150;-2.134;2023-09-19T11:33:32;13.00;99.90
23629;DHT22;11991;57.150;-2.134;2023-09-19T11:36:12;13.10;99.90
23629;DHT22;11991;57.150;-2.134;2023-09-19T11:46:34;13.30;99.90
23629;DHT22;11991;57.150;-2.134;2023-09-19T11:49:08;13.30;99.90
23629;DHT22;11991;57.150;-2.134;2023-09-19T11:51:41;13.30;99.90
23629;DHT22;11991;57.150;-2.134;2023-09-19T11:54:13;13.30;99.90
23629;DHT22;11991;57.150;-2.134;2023-09-19T11:56:46;13.30;99.90
23629;DHT22;11991;57.150;-2.134;2023-09-19T11:59:26;13.30;99.90
23629;DHT22;11991;57.150;-2.134;2023-09-19T12:02:00;13.40;99.90
23629;DHT22;11991;57.150;-2.134;2023-09-19T12:04:44;13.40;99.90
23629;DHT22;11991;57.150;-2.134;2023-09-19T12:07:15;13.50;99.90
23629;DHT22;11991;57.150;-2.134;2023-09-19T12:09:46;13.50;99.90
23629;DHT22;11991;57.150;-2.134;2023-09-19T12:12:28;13.50;99.90
23629;DHT22;11991;57.150;-2.134;2023-09-19T12:14:57;13.60;99.90
23629;DHT22;11991;57.150;-2.134;2023-09-19T12:17:36;13.70;99.90
23629;DHT22;11991;57.150;-2.134;2023-09-19T12:20:04;13.70;99.90
23629;DHT22;11991;57.150;-2.134;2023-09-19T12:22:40;13.70;99.90
23629;DHT22;11991;57.150;-2.134;2023-09-19T12:25:10;13.70;99.90
23629;DHT22;11991;57.150;-2.134;2023-09-19T12:27:45;13.70;99.90
23629;DHT22;11991;57.150;-2.134;2023-09-19T12:30:28;13.80;99.90
23629;DHT22;11991;57.150;-2.134;2023-09-19T12:32:56;13.80;99.90
23629;DHT22;11991;57.150;-2.134;2023-09-19T12:35:29;13.80;99.90
23629;DHT22;11991;57.150;-2.134;2023-09-19T12:38:03;13.80;99.90
23629;DHT22;11991;57.150;-2.134;2023-09-19T12:40:31;13.80;99.90
23629;DHT22;11991;57.150;-2.134;2023-09-19T12:43:01;13.70;99.90
23629;DHT22;11991;57.150;-2.134;2023-09-19T12:45:31;13.70;99.90
23629;DHT22;11991;57.150;-2.134;2023-09-19T12:48:26;13.60;99.90
23629;DHT22;11991;57.150;-2.134;2023-09-19T12:51:06;13.60;99.90
23629;DHT22;11991;57.150;-2.134;2023-09-19T12:56:12;13.60;99.90
23629;DHT22;11991;57.150;-2.134;2023-09-19T12:58:53;13.60;99.90
23629;DHT22;11991;57.150;-2.134;2023-09-19T13:01:23;13.60;99.90
23629;DHT22;11991;57.150;-2.134;2023-09-19T13:06:50;13.60;99.90
23629;DHT22;11991;57.150;-2.134;2023-09-19T13:09:20;13.60;99.90
23629;DHT22;11991;57.150;-2.134;2023-09-19T13:11:48;13.50;99.90
23629;DHT22;11991;57.150;-2.134;2023-09-19T13:14:24;13.50;99.90
23629;DHT22;11991;57.150;-2.134;2023-09-19T13:17:02;13.60;99.90
23629;DHT22;11991;57.150;-2.134;2023-09-19T13:20:02;13.60;99.90
23629;DHT22;11991;57.150;-2.134;2023-09-19T13:25:17;13.50;99.90
23629;DHT22;11991;57.150;-2.134;2023-09-19T13:27:51;13.50;99.90
23629;DHT22;11991;57.150;-2.134;2023-09-19T13:30:20;13.60;99.90
23629;DHT22;11991;57.150;-2.134;2023-09-19T13:32:48;13.60;99.90
23629;DHT22;11991;57.150;-2.134;2023-09-19T13:35:15;13.50;99.90
23629;DHT22;11991;57.150;-2.134;2023-09-19T13:37:43;13.50;99.90
23629;DHT22;11991;57.150;-2.134;2023-09-19T13:40:15;13.50;99.90
23629;DHT22;11991;57.150;-2.134;2023-09-19T13:42:43;13.50;99.90
23629;DHT22;11991;57.150;-2.134;2023-09-19T13:45:10;13.50;99.90
23629;DHT22;11991;57.150;-2.134;2023-09-19T13:47:40;13.50;99.90
23629;DHT22;11991;57.150;-2.134;2023-09-19T13:50:08;13.50;99.90
23629;DHT22;11991;57.150;-2.134;2023-09-19T13:52:36;13.50;99.90
23629;DHT22;11991;57.150;-2.134;2023-09-19T13:55:03;13.50;99.90
23629;DHT22;11991;57.150;-2.134;2023-09-19T13:57:31;13.50;99.90
23629;DHT22;11991;57.150;-2.134;2023-09-19T14:00:00;13.50;99.90
23629;DHT22;11991;57.150;-2.134;2023-09-19T14:02:27;13.50;99.90
23629;DHT22;11991;57.150;-2.134;2023-09-19T14:04:54;13.50;99.90
23629;DHT22;11991;57.150;-2.134;2023-09-19T14:07:22;13.40;99.90
23629;DHT22;11991;57.150;-2.134;2023-09-19T14:09:49;13.50;99.90
23629;DHT22;11991;57.150;-2.134;2023-09-19T14:12:16;13.50;99.90
23629;DHT22;11991;57.150;-2.134;2023-09-19T14:14:43;13.40;99.90
23629;DHT22;11991;57.150;-2.134;2023-09-19T14:17:12;13.40;99.90
23629;DHT22;11991;57.150;-2.134;2023-09-19T14:19:41;13.30;99.90
23629;DHT22;11991;57.150;-2.134;2023-09-19T14:22:12;13.30;99.90
23629;DHT22;11991;57.150;-2.134;2023-09-19T14:24:41;13.30;99.90
23629;DHT22;11991;57.150;-2.134;2023-09-19T14:27:08;13.30;99.90
23629;DHT22;11991;57.150;-2.134;2023-09-19T14:29:36;13.30;99.90
23629;DHT22;11991;57.150;-2.134;2023-09-19T14:32:03;13.30;99.90
23629;DHT22;11991;57.150;-2.134;2023-09-19T14:34:32;13.30;99.90
23629;DHT22;11991;57.150;-2.134;2023-09-19T14:36:59;13.30;99.90
23629;DHT22;11991;57.150;-2.134;2023-09-19T14:39:27;13.30;99.90
23629;DHT22;11991;57.150;-2.134;2023-09-19T14:41:54;13.30;99.90
23629;DHT22;11991;57.150;-2.134;2023-09-19T14:44:21;13.30;99.90
23629;DHT22;11991;57.150;-2.134;2023-09-19T14:46:49;13.30;99.90
23629;DHT22;11991;57.150;-2.134;2023-09-19T14:49:16;13.30;99.90
23629;DHT22;11991;57.150;-2.134;2023-09-19T14:51:43;13.30;99.90
23629;DHT22;11991;57.150;-2.134;2023-09-19T14:54:11;13.30;99.90
23629;DHT22;11991;57.150;-2.134;2023-09-19T14:56:38;13.30;99.90
23629;DHT22;11991;57.150;-2.134;2023-09-19T14:59:10;13.30;99.90
23629;DHT22;11991;57.150;-2.134;2023-09-19T15:01:38;13.30;99.90
23629;DHT22;11991;57.150;-2.134;2023-09-19T15:04:06;13.30;99.90
23629;DHT22;11991;57.150;-2.134;2023-09-19T15:06:33;13.40;99.90
23629;DHT22;11991;57.150;-2.134;2023-09-19T15:09:01;13.40;99.90
23629;DHT22;11991;57.150;-2.134;2023-09-19T15:11:28;13.40;99.90
23629;DHT22;11991;57.150;-2.134;2023-09-19T15:13:55;13.40;99.90
23629;DHT22;11991;57.150;-2.134;2023-09-19T15:16:23;13.40;99.90
23629;DHT22;11991;57.150;-2.134;2023-09-19T15:18:50;13.40;99.90
23629;DHT22;11991;57.150;-2.134;2023-09-19T15:21:19;13.40;99.90
23629;DHT22;11991;57.150;-2.134;2023-09-19T15:23:46;13.50;99.90
23629;DHT22;11991;57.150;-2.134;2023-09-19T15:26:14;13.50;99.90
23629;DHT22;11991;57.150;-2.134;2023-09-19T15:28:47;13.40;99.90
23629;DHT22;11991;57.150;-2.134;2023-09-19T15:31:15;13.40;99.90
23629;DHT22;11991;57.150;-2.134;2023-09-19T15:33:42;13.40;99.90
23629;DHT22;11991;57.150;-2.134;2023-09-19T15:36:11;13.30;99.90
23629;DHT22;11991;57.150;-2.134;2023-09-19T15:39:08;13.30;99.90
23629;DHT22;11991;57.150;-2.134;2023-09-19T15:41:39;13.30;99.90
23629;DHT22;11991;57.150;-2.134;2023-09-19T15:44:13;13.20;99.90
23629;DHT22;11991;57.150;-2.134;2023-09-19T15:46:41;13.20;99.90
23629;DHT22;11991;57.150;-2.134;2023-09-19T15:49:08;13.20;99.90
23629;DHT22;11991;57.150;-2.134;2023-09-19T15:51:36;13.20;99.90
23629;DHT22;11991;57.150;-2.134;2023-09-19T15:54:12;13.20;99.90
23629;DHT22;11991;57.150;-2.134;2023-09-19T15:56:44;13.20;99.90
23629;DHT22;11991;57.150;-2.134;2023-09-19T15:59:11;13.20;99.90
23629;DHT22;11991;57.150;-2.134;2023-09-19T16:01:42;13.20;99.90
23629;DHT22;11991;57.150;-2.134;2023-09-19T16:04:11;13.20;99.90
23629;DHT22;11991;57.150;-2.134;2023-09-19T16:06:43;13.20;99.90
23629;DHT22;11991;57.150;-2.134;2023-09-19T16:09:11;13.20;99.90
23629;DHT22;11991;57.150;-2.134;2023-09-19T16:11:38;13.20;99.90
23629;DHT22;11991;57.150;-2.134;2023-09-19T16:14:05;13.20;99.90
23629;DHT22;11991;57.150;-2.134;2023-09-19T16:16:37;13.20;99.90
23629;DHT22;11991;57.150;-2.134;2023-09-19T16:19:05;13.10;99.90
23629;DHT22;11991;57.150;-2.134;2023-09-19T16:21:37;13.20;99.90
23629;DHT22;11991;57.150;-2.134;2023-09-19T16:24:07;13.10;99.90
23629;DHT22;11991;57.150;-2.134;2023-09-19T16:26:37;13.10;99.90
23629;DHT22;11991;57.150;-2.134;2023-09-19T16:29:04;13.10;99.90
23629;DHT22;11991;57.150;-2.134;2023-09-19T16:31:33;13.00;99.90
23629;DHT22;11991;57.150;-2.134;2023-09-19T16:34:01;13.00;99.90
23629;DHT22;11991;57.150;-2.134;2023-09-19T16:36:28;13.00;99.90